Time;durP1;ratioP1;P1;durP2;ratioP2;P2;SDS_P1;SDS_P2;PMS_P1;PMS_P2;Temp;Humidity;BMP_temperature;BMP_pressure;BME280_temperature;BME280_humidity;BME280_pressure;Samples;Min_cycle;Max_cycle;Signal;HPM_P1;HPM_P2
2022/04/08 00:01:42;;;;;;;53.33;43.55;;;;;;;10.44;100.00;99534.72;5069371;28;20045;-78
2022/04/08 00:04:09;;;;;;;48.17;42.88;;;;;;;10.39;100.00;99536.44;5068917;28;20045;-79
2022/04/08 00:06:36;;;;;;;52.15;42.90;;;;;;;10.34;100.00;99529.16;5067025;28;20049;-79
2022/04/08 00:09:03;;;;;;;54.35;43.67;;;;;;;10.35;100.00;99529.97;5066154;28;20053;-80
2022/04/08 00:11:30;;;;;;;46.17;40.25;;;;;;;10.52;100.00;99529.03;5066079;28;20494;-79
2022/04/08 00:13:56;;;;;;;47.85;42.28;;;;;;;10.35;100.00;99535.28;5063069;28;20053;-80
2022/04/08 00:16:23;;;;;;;47.70;42.60;;;;;;;10.46;100.00;99527.31;5067403;28;20106;-79
2022/04/08 00:18:52;;;;;;;43.55;38.30;;;;;;;10.46;100.00;99526.50;5064791;28;20048;-79
2022/04/08 00:21:19;;;;;;;44.63;39.95;;;;;;;10.44;100.00;99533.88;5072091;28;20105;-79
2022/04/08 00:23:46;;;;;;;47.65;41.72;;;;;;;10.37;100.00;99530.56;5067245;28;20482;-79
2022/04/08 00:26:13;;;;;;;50.92;45.53;;;;;;;10.39;100.00;99537.25;5063155;28;20072;-79
2022/04/08 00:28:40;;;;;;;46.40;41.40;;;;;;;10.37;100.00;99535.88;5064366;28;20566;-79
2022/04/08 00:31:06;;;;;;;44.30;39.70;;;;;;;10.33;100.00;99535.53;5062371;28;20040;-79
2022/04/08 00:33:34;;;;;;;50.78;45.65;;;;;;;10.44;100.00;99541.84;5066933;28;20049;-79
2022/04/08 00:36:02;;;;;;;47.00;42.13;;;;;;;10.36;100.00;99535.06;5063198;28;20052;-79
2022/04/08 00:38:29;;;;;;;42.45;38.10;;;;;;;10.84;100.00;99533.91;5067218;28;20106;-79
2022/04/08 00:40:56;;;;;;;49.92;42.63;;;;;;;10.65;100.00;99532.47;5057234;28;20098;-79
2022/04/08 00:43:33;;;;;;;51.22;45.85;;;;;;;10.84;100.00;99538.44;5061061;28;20045;-79
2022/04/08 00:45:59;;;;;;;47.70;42.72;;;;;;;10.65;100.00;99535.94;5070429;28;20488;-80
2022/04/08 00:48:26;;;;;;;48.05;42.95;;;;;;;10.65;100.00;99543.91;5067363;28;20110;-80
2022/04/08 00:50:54;;;;;;;48.92;43.70;;;;;;;10.68;100.00;99543.44;5067340;28;20056;-80
2022/04/08 00:53:22;;;;;;;46.47;41.78;;;;;;;10.67;100.00;99538.34;5068451;28;20044;-80
2022/04/08 00:55:50;;;;;;;41.95;37.90;;;;;;;10.55;100.00;99536.53;5061733;28;20115;-80
2022/04/08 00:58:17;;;;;;;51.83;46.83;;;;;;;10.99;100.00;99538.72;5069060;28;20053;-80
2022/04/08 01:00:44;;;;;;;54.17;48.90;;;;;;;10.76;100.00;99551.03;5064197;28;20052;-80
2022/04/08 01:03:11;;;;;;;46.72;41.95;;;;;;;10.94;100.00;99544.72;5067785;28;20078;-80
2022/04/08 01:05:38;;;;;;;46.83;42.88;;;;;;;11.31;100.00;99547.00;5064002;28;20044;-80
2022/04/08 01:08:05;;;;;;;53.92;49.08;;;;;;;11.06;100.00;99544.69;5055135;28;20049;-80
2022/04/08 01:10:34;;;;;;;54.65;49.15;;;;;;;11.15;100.00;99543.25;5064206;28;20087;-80
2022/04/08 01:13:00;;;;;;;47.13;42.42;;;;;;;10.84;100.00;99552.50;5062876;28;20044;-80
2022/04/08 01:15:27;;;;;;;42.38;37.97;;;;;;;10.68;100.00;99554.06;5063347;28;20049;-80
2022/04/08 01:17:54;;;;;;;41.08;37.10;;;;;;;11.20;100.00;99547.88;5061546;28;20194;-80
2022/04/08 01:20:21;;;;;;;48.75;43.63;;;;;;;10.60;100.00;99557.06;5063410;28;20045;-80
2022/04/08 01:22:48;;;;;;;56.10;50.55;;;;;;;10.92;100.00;99569.91;5054760;28;20048;-80
2022/04/08 01:25:16;;;;;;;55.03;49.65;;;;;;;10.71;100.00;99566.88;5071437;28;20095;-80
2022/04/08 01:27:43;;;;;;;55.42;50.15;;;;;;;10.71;100.00;99569.53;5061647;28;20500;-80
2022/04/08 01:30:12;;;;;;;47.20;42.25;;;;;;;10.43;100.00;99564.94;5068418;28;20454;-80
2022/04/08 01:32:38;;;;;;;51.38;46.13;;;;;;;10.54;100.00;99572.09;5060466;28;20045;-80
2022/04/08 01:35:06;;;;;;;51.13;45.83;;;;;;;10.41;100.00;99567.03;5065764;28;20048;-80
2022/04/08 01:37:33;;;;;;;47.78;42.92;;;;;;;10.59;100.00;99557.28;5071643;28;20060;-80
2022/04/08 01:40:00;;;;;;;49.42;44.80;;;;;;;10.65;100.00;99567.81;5063298;28;20463;-80
2022/04/08 01:42:28;;;;;;;48.10;43.22;;;;;;;10.45;100.00;99562.88;5060714;28;20593;-80
2022/04/08 01:44:56;;;;;;;46.22;41.90;;;;;;;10.72;100.00;99571.13;5060103;28;20048;-81
2022/04/08 01:47:23;;;;;;;52.17;46.85;;;;;;;10.77;100.00;99563.28;5061584;28;20052;-80
2022/04/08 01:49:51;;;;;;;62.45;57.08;;;;;;;10.94;100.00;99560.66;5070129;28;20040;-80
2022/04/08 01:52:18;;;;;;;53.78;48.60;;;;;;;10.38;100.00;99548.91;5077603;28;20041;-80
2022/04/08 01:54:45;;;;;;;49.67;45.08;;;;;;;10.45;100.00;99551.44;5067756;28;20052;-80
2022/04/08 01:57:11;;;;;;;51.88;46.85;;;;;;;10.69;100.00;99565.50;5069143;28;20041;-80
2022/04/08 01:59:39;;;;;;;50.65;45.65;;;;;;;10.62;100.00;99556.81;5072397;28;20052;-80
2022/04/08 02:02:06;;;;;;;48.28;44.15;;;;;;;11.08;100.00;99563.88;5061529;28;20475;-80
2022/04/08 02:04:35;;;;;;;53.72;48.67;;;;;;;10.73;100.00;99566.63;5070980;28;20519;-79
2022/04/08 02:07:06;;;;;;;56.33;50.88;;;;;;;10.69;100.00;99562.84;5069898;28;20133;-80
2022/04/08 02:09:33;;;;;;;48.13;43.00;;;;;;;10.70;100.00;99567.91;5066765;28;20049;-80
2022/04/08 02:12:00;;;;;;;55.35;49.72;;;;;;;10.83;100.00;99572.13;5075793;28;20397;-80
2022/04/08 02:14:27;;;;;;;56.58;50.75;;;;;;;10.64;100.00;99578.66;5075703;28;20045;-80
2022/04/08 02:16:55;;;;;;;51.38;46.50;;;;;;;10.51;100.00;99569.91;5074987;28;20505;-80
2022/04/08 02:19:21;;;;;;;52.88;47.75;;;;;;;10.34;100.00;99576.16;5072464;28;20052;-80
2022/04/08 02:21:49;;;;;;;54.15;48.97;;;;;;;10.71;100.00;99589.94;5067703;28;20044;-80
2022/04/08 02:24:16;;;;;;;54.63;48.85;;;;;;;10.35;100.00;99583.06;5066204;28;20137;-79
2022/04/08 02:26:42;;;;;;;50.45;45.83;;;;;;;10.61;100.00;99590.53;5065743;28;20110;-80
2022/04/08 02:29:09;;;;;;;52.30;47.05;;;;;;;10.39;100.00;99584.22;5068676;28;20049;-80
2022/04/08 02:31:36;;;;;;;47.92;43.70;;;;;;;10.45;100.00;99586.75;5072056;28;20070;-80
2022/04/08 02:34:04;;;;;;;51.00;46.00;;;;;;;10.21;100.00;99590.44;5065367;28;20547;-79
2022/04/08 02:36:31;;;;;;;54.17;49.03;;;;;;;10.63;100.00;99600.94;5071181;28;20045;-80
2022/04/08 02:38:58;;;;;;;52.90;47.72;;;;;;;10.50;100.00;99588.72;5072864;28;20044;-80
2022/04/08 02:41:25;;;;;;;44.95;40.45;;;;;;;10.05;100.00;99598.03;5070504;28;20478;-80
2022/04/08 02:43:51;;;;;;;44.25;39.55;;;;;;;10.23;100.00;99591.03;5069362;28;20106;-80
2022/04/08 02:46:18;;;;;;;45.50;40.88;;;;;;;9.82;100.00;99592.69;5065613;28;20114;-80
2022/04/08 02:48:45;;;;;;;45.80;41.63;;;;;;;10.44;100.00;99592.28;5069317;28;20501;-80
2022/04/08 02:51:13;;;;;;;41.03;37.53;;;;;;;10.81;100.00;99590.16;5069548;28;20481;-80
2022/04/08 02:53:40;;;;;;;50.78;45.85;;;;;;;10.09;100.00;99603.69;5071423;28;20106;-80
2022/04/08 02:56:06;;;;;;;47.72;43.10;;;;;;;10.04;100.00;99598.25;5071521;28;20040;-80
2022/04/08 02:58:34;;;;;;;50.95;45.97;;;;;;;9.97;100.00;99606.31;5074843;28;20052;-80
2022/04/08 03:01:00;;;;;;;50.42;45.80;;;;;;;10.02;100.00;99608.31;5066659;28;20052;-80
2022/04/08 03:03:27;;;;;;;54.10;48.65;;;;;;;9.85;100.00;99627.53;5065353;28;20491;-79
2022/04/08 03:05:54;;;;;;;51.60;46.60;;;;;;;9.92;100.00;99627.41;5072921;28;20048;-79
2022/04/08 03:08:23;;;;;;;52.10;47.40;;;;;;;9.84;100.00;99623.25;5072386;28;20139;-79
2022/04/08 03:10:50;;;;;;;53.38;48.22;;;;;;;9.83;100.00;99619.00;5064427;28;20048;-79
2022/04/08 03:13:17;;;;;;;59.30;54.40;;;;;;;10.04;100.00;99620.28;5063700;28;20051;-80
2022/04/08 03:15:44;;;;;;;52.40;47.67;;;;;;;9.73;100.00;99628.53;5067865;28;20428;-79
2022/04/08 03:18:11;;;;;;;49.42;44.88;;;;;;;9.99;100.00;99633.44;5064213;28;20133;-80
2022/04/08 03:20:37;;;;;;;50.45;45.80;;;;;;;9.53;100.00;99627.00;5065109;28;20487;-79
2022/04/08 03:23:04;;;;;;;50.75;45.90;;;;;;;9.35;100.00;99648.22;5071394;28;20186;-79
2022/04/08 03:25:32;;;;;;;45.03;40.53;;;;;;;9.58;100.00;99650.16;5062555;28;20493;-80
2022/04/08 03:28:00;;;;;;;44.90;40.70;;;;;;;9.69;100.00;99652.03;5064439;28;20490;-79
2022/04/08 03:30:27;;;;;;;49.35;44.97;;;;;;;9.61;100.00;99669.06;5070021;28;20048;-79
2022/04/08 03:32:54;;;;;;;47.88;42.95;;;;;;;9.37;100.00;99670.00;5070320;28;20052;-79
2022/04/08 03:35:21;;;;;;;47.92;43.15;;;;;;;9.43;100.00;99678.91;5066079;28;20044;-79
2022/04/08 03:37:48;;;;;;;49.72;44.85;;;;;;;9.45;100.00;99676.84;5055856;28;20591;-79
2022/04/08 03:40:15;;;;;;;44.75;40.65;;;;;;;9.62;100.00;99676.00;5064475;28;20044;-80
2022/04/08 03:42:43;;;;;;;45.95;41.58;;;;;;;9.53;100.00;99681.81;5071463;28;20116;-80
2022/04/08 03:45:10;;;;;;;53.05;48.08;;;;;;;10.03;100.00;99682.34;5069348;28;20102;-80
2022/04/08 03:47:36;;;;;;;43.40;39.42;;;;;;;9.50;100.00;99685.75;5067111;28;20044;-80
2022/04/08 03:50:05;;;;;;;44.20;40.08;;;;;;;9.37;100.00;99692.00;5064694;28;20053;-80
2022/04/08 03:52:33;;;;;;;42.45;38.38;;;;;;;9.50;100.00;99695.53;5056175;28;20496;-80
2022/04/08 03:55:00;;;;;;;46.33;41.92;;;;;;;9.67;100.00;99701.03;5063675;28;20132;-79
2022/04/08 03:57:28;;;;;;;44.17;40.15;;;;;;;9.56;100.00;99700.75;5072532;28;20128;-80
2022/04/08 03:59:56;;;;;;;46.17;41.58;;;;;;;9.73;100.00;99703.56;5064975;28;20105;-80
2022/04/08 04:02:24;;;;;;;42.42;38.65;;;;;;;9.56;100.00;99695.47;5064123;28;20048;-80
2022/04/08 04:04:51;;;;;;;39.53;35.60;;;;;;;10.04;100.00;99694.56;5070941;28;20514;-80
2022/04/08 04:07:18;;;;;;;44.78;40.25;;;;;;;9.59;100.00;99699.47;5072762;28;20049;-80
2022/04/08 04:09:46;;;;;;;43.17;39.97;;;;;;;10.00;100.00;99696.06;5064526;28;20044;-80
2022/04/08 04:12:14;;;;;;;42.85;39.03;;;;;;;9.88;100.00;99712.97;5064220;28;20048;-80
2022/04/08 04:14:40;;;;;;;43.00;38.92;;;;;;;9.36;100.00;99716.91;5068570;28;20049;-80
2022/04/08 04:17:09;;;;;;;42.22;38.30;;;;;;;9.93;100.00;99726.38;5065845;28;20471;-80
2022/04/08 04:19:35;;;;;;;41.10;37.53;;;;;;;9.84;100.00;99723.25;5070675;28;20044;-80
2022/04/08 04:22:02;;;;;;;43.45;39.65;;;;;;;9.88;100.00;99740.31;5066263;28;20045;-80
2022/04/08 04:24:29;;;;;;;41.47;38.13;;;;;;;9.78;100.00;99735.53;5068259;28;20079;-80
2022/04/08 04:26:56;;;;;;;42.50;38.55;;;;;;;9.83;100.00;99740.16;5066206;28;20401;-80
2022/04/08 04:29:23;;;;;;;41.28;37.70;;;;;;;9.81;100.00;99751.00;5062785;28;20037;-80
2022/04/08 04:31:50;;;;;;;41.00;37.60;;;;;;;9.96;100.00;99753.25;5067640;28;20052;-80
2022/04/08 04:34:18;;;;;;;40.50;37.22;;;;;;;10.66;100.00;99759.81;5069359;28;20484;-80
2022/04/08 04:36:46;;;;;;;39.08;35.88;;;;;;;10.52;100.00;99746.72;5073027;28;20048;-80
2022/04/08 04:39:12;;;;;;;41.50;38.22;;;;;;;10.09;100.00;99761.03;5066828;28;20048;-80
2022/04/08 04:41:39;;;;;;;41.00;37.40;;;;;;;10.19;100.00;99760.47;5070676;28;20591;-80
2022/04/08 04:44:06;;;;;;;40.03;36.38;;;;;;;10.37;100.00;99762.28;5065929;28;20052;-80
2022/04/08 04:46:33;;;;;;;40.65;36.72;;;;;;;10.20;100.00;99762.13;5071646;28;20106;-80
2022/04/08 04:49:01;;;;;;;38.15;35.20;;;;;;;10.49;100.00;99776.38;5070766;28;20036;-80
2022/04/08 04:51:30;;;;;;;37.55;34.15;;;;;;;10.34;100.00;99777.84;5070150;28;20458;-80
2022/04/08 04:53:57;;;;;;;34.78;32.15;;;;;;;10.66;100.00;99792.47;5070144;28;20401;-80
2022/04/08 04:56:25;;;;;;;43.10;39.20;;;;;;;9.96;100.00;99785.09;5068551;28;20045;-80
2022/04/08 04:58:52;;;;;;;35.60;32.95;;;;;;;10.61;100.00;99789.69;5061987;28;20504;-80
2022/04/08 05:01:19;;;;;;;36.15;33.28;;;;;;;10.84;100.00;99794.25;5059906;28;20109;-80
2022/04/08 05:03:45;;;;;;;34.83;32.53;;;;;;;11.15;100.00;99792.28;5062521;28;20110;-80
2022/04/08 05:06:12;;;;;;;40.60;37.30;;;;;;;10.61;100.00;99789.69;5063776;28;20058;-80
2022/04/08 05:08:40;;;;;;;36.30;33.72;;;;;;;10.77;100.00;99794.34;5066081;28;20045;-80
2022/04/08 05:11:08;;;;;;;36.95;34.20;;;;;;;11.17;100.00;99791.00;5061847;28;20115;-80
2022/04/08 05:13:35;;;;;;;37.80;34.67;;;;;;;11.08;100.00;99794.25;5062183;28;20057;-80
2022/04/08 05:16:01;;;;;;;37.20;34.17;;;;;;;11.09;100.00;99783.38;5070041;28;20048;-80
2022/04/08 05:18:28;;;;;;;39.60;36.78;;;;;;;11.05;100.00;99808.00;5064813;28;20071;-80
2022/04/08 05:20:55;;;;;;;36.35;33.67;;;;;;;11.36;100.00;99799.66;5063824;28;20048;-80
2022/04/08 05:23:25;;;;;;;39.75;36.65;;;;;;;11.16;100.00;99807.16;5064993;28;20094;-80
2022/04/08 05:25:54;;;;;;;38.05;34.67;;;;;;;11.28;100.00;99810.63;5062475;28;20070;-79
2022/04/08 05:28:21;;;;;;;39.03;35.92;;;;;;;11.43;100.00;99802.97;5059275;28;20059;-80
2022/04/08 05:30:47;;;;;;;39.67;36.67;;;;;;;11.75;100.00;99813.22;5062059;28;20102;-80
2022/04/08 05:33:14;;;;;;;38.42;35.38;;;;;;;11.28;100.00;99815.16;5062851;28;20524;-81
2022/04/08 05:35:41;;;;;;;41.85;38.50;;;;;;;11.29;100.00;99811.47;5060884;28;20067;-80
2022/04/08 05:38:08;;;;;;;45.08;41.72;;;;;;;11.64;100.00;99820.19;5069316;28;20048;-80
2022/04/08 05:40:34;;;;;;;42.20;38.70;;;;;;;11.33;100.00;99817.91;5060627;28;20059;-80
2022/04/08 05:43:02;;;;;;;39.00;36.05;;;;;;;11.52;100.00;99827.38;5061199;28;20186;-80
2022/04/08 05:45:29;;;;;;;42.60;38.97;;;;;;;11.72;100.00;99828.84;5062705;28;20533;-80
2022/04/08 05:47:58;;;;;;;41.65;38.45;;;;;;;11.79;100.00;99843.63;5067178;28;20049;-80
2022/04/08 05:50:24;;;;;;;37.03;34.33;;;;;;;11.85;100.00;99847.22;5059090;28;20051;-80
2022/04/08 05:52:52;;;;;;;40.70;37.40;;;;;;;11.82;100.00;99850.34;5069325;28;20057;-80
2022/04/08 05:55:19;;;;;;;43.58;39.95;;;;;;;11.84;100.00;99848.25;5060389;28;20045;-80
2022/04/08 05:57:47;;;;;;;41.47;38.08;;;;;;;11.79;100.00;99851.59;5062010;28;20138;-80
2022/04/08 06:00:17;;;;;;;38.97;36.13;;;;;;;12.03;100.00;99860.38;5061709;28;20044;-80
2022/04/08 06:02:45;;;;;;;41.75;39.17;;;;;;;11.57;100.00;99874.56;5060171;28;20052;-80
2022/04/08 06:05:15;;;;;;;43.78;40.35;;;;;;;11.74;100.00;99875.47;5060664;28;20045;-80
2022/04/08 06:07:46;;;;;;;44.92;41.30;;;;;;;12.01;100.00;99875.78;5068222;28;20116;-80
2022/04/08 06:10:18;;;;;;;41.38;38.38;;;;;;;12.19;100.00;99866.78;5061513;28;20040;-80
2022/04/08 06:12:45;;;;;;;41.72;38.58;;;;;;;11.96;100.00;99866.88;5062236;28;20053;-80
2022/04/08 06:15:12;;;;;;;40.13;37.22;;;;;;;12.17;100.00;99866.25;5060675;28;20052;-80
2022/04/08 06:17:41;;;;;;;45.35;41.95;;;;;;;12.48;100.00;99875.59;5067176;28;20106;-80
2022/04/08 06:20:10;;;;;;;41.53;38.35;;;;;;;12.49;100.00;99879.88;5064165;28;20106;-80
2022/04/08 06:22:39;;;;;;;43.80;40.60;;;;;;;12.58;100.00;99893.63;5054174;28;20045;-81
2022/04/08 06:25:08;;;;;;;42.03;38.63;;;;;;;12.36;100.00;99890.81;5066398;28;20052;-80
2022/04/08 06:27:35;;;;;;;41.10;38.15;;;;;;;12.60;100.00;99896.88;5065505;28;20432;-80
2022/04/08 06:30:02;;;;;;;39.70;36.55;;;;;;;12.99;100.00;99905.00;5068250;28;20075;-80
2022/04/08 06:32:28;;;;;;;40.42;36.95;;;;;;;12.97;100.00;99902.56;5061190;28;20492;-80
2022/04/08 06:34:57;;;;;;;40.05;37.03;;;;;;;13.09;100.00;99902.50;5058179;28;20110;-80
2022/04/08 06:37:27;;;;;;;40.05;37.05;;;;;;;12.97;100.00;99902.56;5072317;28;20052;-80
2022/04/08 06:39:54;;;;;;;39.20;36.05;;;;;;;12.78;100.00;99901.97;5067722;28;20045;-80
2022/04/08 06:42:21;;;;;;;36.00;33.53;;;;;;;13.17;100.00;99915.44;5061925;28;20127;-80
2022/04/08 06:44:48;;;;;;;38.65;36.15;;;;;;;13.25;100.00;99923.06;5063909;28;20049;-80
2022/04/08 06:47:15;;;;;;;36.78;33.95;;;;;;;13.30;100.00;99933.00;5073198;28;20044;-81
2022/04/08 06:49:44;;;;;;;38.13;35.20;;;;;;;13.46;100.00;99934.03;5062959;28;20492;-80
2022/04/08 06:52:12;;;;;;;34.97;32.08;;;;;;;13.20;100.00;99928.28;5071123;28;20131;-80
2022/04/08 06:54:39;;;;;;;36.58;33.60;;;;;;;13.53;100.00;99937.34;5067109;28;20479;-80
2022/04/08 06:57:07;;;;;;;36.97;33.92;;;;;;;13.63;100.00;99936.69;5065378;28;20052;-80
2022/04/08 06:59:33;;;;;;;39.20;36.55;;;;;;;13.57;100.00;99935.81;5060851;28;20052;-80
2022/04/08 07:02:00;;;;;;;34.00;32.00;;;;;;;13.47;100.00;99943.66;5068447;28;20111;-80
2022/04/08 07:04:27;;;;;;;33.13;31.05;;;;;;;13.33;100.00;99940.50;5064967;28;20569;-80
2022/04/08 07:06:54;;;;;;;30.48;28.55;;;;;;;13.65;100.00;99951.41;5067584;28;20044;-80
2022/04/08 07:09:22;;;;;;;35.10;33.10;;;;;;;13.88;100.00;99945.03;5063007;28;20044;-80
2022/04/08 07:11:48;;;;;;;36.42;34.22;;;;;;;13.78;100.00;99946.78;5067195;28;20045;-81
2022/04/08 07:14:16;;;;;;;37.88;35.38;;;;;;;14.16;100.00;99960.13;5065563;28;20045;-80
2022/04/08 07:16:43;;;;;;;31.83;29.83;;;;;;;13.51;100.00;99968.78;5065792;28;20052;-80
2022/04/08 07:19:11;;;;;;;33.20;31.33;;;;;;;13.38;100.00;99958.47;5069497;28;20131;-80
2022/04/08 07:21:38;;;;;;;37.35;34.53;;;;;;;14.28;100.00;99962.69;5068444;28;20077;-80
2022/04/08 07:24:05;;;;;;;36.13;33.92;;;;;;;14.18;100.00;99966.00;5064259;28;20049;-80
2022/04/08 07:26:33;;;;;;;35.63;33.17;;;;;;;13.60;100.00;99971.88;5069719;28;20493;-81
2022/04/08 07:29:01;;;;;;;31.48;29.85;;;;;;;13.98;100.00;99963.88;5067678;28;20057;-81
2022/04/08 07:31:28;;;;;;;38.75;36.33;;;;;;;14.08;100.00;99965.88;5058827;28;20079;-80
2022/04/08 07:33:55;;;;;;;37.80;35.38;;;;;;;14.34;100.00;99975.03;5062437;28;20057;-80
2022/04/08 07:36:21;;;;;;;35.58;32.95;;;;;;;13.93;100.00;99968.34;5065579;28;20574;-80
2022/04/08 07:38:48;;;;;;;38.00;35.30;;;;;;;14.76;100.00;99974.44;5068100;28;20048;-81
2022/04/08 07:41:15;;;;;;;35.85;33.28;;;;;;;14.41;100.00;99980.19;5065760;28;20075;-80
2022/04/08 07:43:43;;;;;;;36.10;33.88;;;;;;;14.39;100.00;99980.41;5068116;28;20056;-81
2022/04/08 07:46:10;;;;;;;36.67;34.33;;;;;;;14.69;100.00;99981.88;5061748;28;20052;-80
2022/04/08 07:48:37;;;;;;;36.17;33.78;;;;;;;15.06;100.00;99990.00;5062346;28;20405;-80
2022/04/08 07:51:03;;;;;;;34.35;32.10;;;;;;;14.82;100.00;99989.47;5062983;28;20049;-80
2022/04/08 07:53:30;;;;;;;33.40;31.42;;;;;;;15.73;100.00;99990.56;5062024;28;20455;-80
2022/04/08 07:55:57;;;;;;;37.08;34.72;;;;;;;15.12;100.00;99990.84;5063260;28;20057;-80
2022/04/08 07:58:24;;;;;;;36.60;34.38;;;;;;;14.72;100.00;100002.75;5066424;28;20459;-80
2022/04/08 08:00:53;;;;;;;36.42;34.38;;;;;;;15.21;100.00;100010.72;5065001;28;20107;-81
2022/04/08 08:03:20;;;;;;;32.67;30.92;;;;;;;14.66;100.00;100022.47;5067806;28;20468;-80
2022/04/08 08:05:47;;;;;;;32.65;30.73;;;;;;;15.02;100.00;100020.19;5063498;28;20280;-80
2022/04/08 08:08:14;;;;;;;29.05;27.25;;;;;;;14.05;100.00;100002.94;5064684;28;20071;-81
2022/04/08 08:10:41;;;;;;;31.70;30.00;;;;;;;13.96;100.00;99998.03;5064560;28;20049;-81
2022/04/08 08:13:07;;;;;;;33.50;31.50;;;;;;;14.31;100.00;99999.56;5063059;28;20421;-81
2022/04/08 08:15:37;;;;;;;33.10;31.05;;;;;;;16.65;100.00;99993.72;5058758;28;20536;-81
2022/04/08 08:18:07;;;;;;;32.65;30.65;;;;;;;16.38;100.00;99988.53;5067142;28;20410;-81
2022/04/08 08:20:34;;;;;;;33.00;31.10;;;;;;;16.98;100.00;99999.75;5071975;28;20405;-81
2022/04/08 08:23:01;;;;;;;32.88;30.77;;;;;;;17.07;100.00;100000.81;5069118;28;20118;-80
2022/04/08 08:25:28;;;;;;;32.60;30.55;;;;;;;17.24;100.00;99996.00;5064347;28;20060;-81
2022/04/08 08:27:59;;;;;;;33.03;30.83;;;;;;;16.78;100.00;99992.44;5058666;28;20044;-80
2022/04/08 08:30:29;;;;;;;32.90;30.83;;;;;;;17.09;100.00;99990.63;5062480;28;20538;-81
2022/04/08 08:32:56;;;;;;;31.52;29.83;;;;;;;15.87;100.00;100005.13;5061051;28;20052;-80
2022/04/08 08:35:25;;;;;;;36.05;33.78;;;;;;;16.71;100.00;100012.25;5061351;28;20044;-80
2022/04/08 08:37:52;;;;;;;30.75;29.10;;;;;;;16.90;100.00;100017.94;5071164;28;20466;-81
2022/04/08 08:40:20;;;;;;;32.38;30.58;;;;;;;17.52;100.00;100021.53;5062324;28;20053;-81
2022/04/08 08:42:47;;;;;;;33.13;31.25;;;;;;;17.29;100.00;100020.16;5065054;28;20417;-80
2022/04/08 08:45:15;;;;;;;31.00;29.05;;;;;;;16.86;100.00;100027.59;5064826;28;20068;-81
2022/04/08 08:47:47;;;;;;;29.13;27.70;;;;;;;14.95;100.00;100027.56;5060068;28;20057;-80
2022/04/08 08:50:14;;;;;;;32.13;30.02;;;;;;;16.78;100.00;100021.94;5060917;28;20132;-80
2022/04/08 08:52:43;;;;;;;35.88;34.05;;;;;;;17.40;100.00;100029.84;5070156;28;20046;-80
2022/04/08 08:55:10;;;;;;;35.17;33.17;;;;;;;17.18;100.00;100021.22;5067385;28;20139;-80
2022/04/08 08:57:37;;;;;;;33.17;30.88;;;;;;;15.97;100.00;100015.09;5062031;28;20570;-81
2022/04/08 09:00:12;;;;;;;32.08;30.17;;;;;;;17.45;100.00;100017.47;5063198;28;20049;-81
2022/04/08 09:02:40;;;;;;;31.70;30.00;;;;;;;17.27;100.00;100016.94;5058619;28;20060;-80
2022/04/08 09:05:14;;;;;;;30.50;28.90;;;;;;;17.27;100.00;100008.88;5058297;28;20463;-81
2022/04/08 09:07:43;;;;;;;34.00;32.17;;;;;;;16.59;100.00;100017.03;5068794;28;20048;-81
2022/04/08 09:10:10;;;;;;;34.03;32.22;;;;;;;15.82;100.00;100025.69;5062079;28;20098;-80
2022/04/08 09:12:37;;;;;;;32.53;30.95;;;;;;;14.97;100.00;100023.59;5066992;28;20136;-80
2022/04/08 09:15:04;;;;;;;30.58;29.10;;;;;;;14.58;100.00;100021.03;5063023;28;20049;-80
2022/04/08 09:17:31;;;;;;;32.90;31.17;;;;;;;16.50;100.00;100032.00;5067318;28;20569;-80
2022/04/08 09:19:59;;;;;;;34.25;32.20;;;;;;;18.14;100.00;100024.16;5058365;28;20049;-79
2022/04/08 09:22:28;;;;;;;31.30;29.80;;;;;;;15.59;100.00;100033.00;5071276;28;20052;-82
2022/04/08 09:25:06;;;;;;;31.85;30.30;;;;;;;15.21;100.00;100029.44;5061640;28;20471;-80
2022/04/08 09:27:33;;;;;;;35.08;33.20;;;;;;;16.48;100.00;100029.56;5061284;28;20052;-80
2022/04/08 09:30:00;;;;;;;37.88;35.88;;;;;;;16.55;100.00;100024.00;5064167;28;20045;-80
2022/04/08 09:32:27;;;;;;;35.25;33.25;;;;;;;17.91;100.00;100030.91;5058431;28;20060;-79
2022/04/08 09:34:55;;;;;;;30.20;28.80;;;;;;;15.32;100.00;100044.53;5062554;28;20053;-79
2022/04/08 09:37:22;;;;;;;34.35;32.58;;;;;;;15.02;100.00;100036.22;5068863;28;20474;-79
2022/04/08 09:39:58;;;;;;;32.08;30.17;;;;;;;16.56;100.00;100036.31;5060379;28;20049;-79
2022/04/08 09:42:41;;;;;;;35.88;33.72;;;;;;;18.05;100.00;100026.59;5061161;28;20052;-80
2022/04/08 09:45:09;;;;;;;32.00;30.20;;;;;;;18.51;100.00;100037.22;5059946;28;20147;-80
2022/04/08 09:47:36;;;;;;;34.60;32.78;;;;;;;18.19;99.88;100037.59;5060141;28;20095;-81
2022/04/08 09:50:03;;;;;;;31.30;29.52;;;;;;;17.59;100.00;100038.16;5064509;28;20048;-80
2022/04/08 09:52:32;;;;;;;34.97;33.05;;;;;;;16.36;100.00;100034.34;5054760;28;20052;-80
2022/04/08 09:55:03;;;;;;;34.88;33.08;;;;;;;18.13;100.00;100031.41;5061020;28;20049;-80
2022/04/08 09:57:36;;;;;;;34.13;32.33;;;;;;;18.82;100.00;100029.03;5062856;28;20127;-81
2022/04/08 10:00:06;;;;;;;30.55;29.05;;;;;;;17.14;100.00;100022.84;5065477;28;20045;-79
2022/04/08 10:02:35;;;;;;;34.83;32.97;;;;;;;18.12;100.00;100019.03;5064533;28;20045;-79
2022/04/08 10:05:02;;;;;;;32.38;30.48;;;;;;;17.83;100.00;100018.84;5062872;28;20114;-80
2022/04/08 10:07:30;;;;;;;30.98;29.30;;;;;;;17.88;100.00;100021.50;5067971;28;22686;-80
2022/04/08 10:10:05;;;;;;;36.80;34.88;;;;;;;17.89;100.00;100022.34;5062355;28;20520;-80
2022/04/08 10:12:41;;;;;;;37.22;35.33;;;;;;;16.17;100.00;100025.13;5067011;28;20056;-80
2022/04/08 10:15:14;;;;;;;35.45;33.75;;;;;;;18.10;100.00;100028.47;5067818;28;20067;-80
2022/04/08 10:17:40;;;;;;;33.10;31.25;;;;;;;18.24;95.08;100026.81;5068054;28;20482;-80
2022/04/08 10:20:18;;;;;;;35.83;33.90;;;;;;;19.26;92.59;100030.94;5061339;28;20041;-80
2022/04/08 10:22:44;;;;;;;33.35;31.55;;;;;;;16.44;97.76;100031.16;5057296;28;20500;-79
2022/04/08 10:25:17;;;;;;;31.73;30.02;;;;;;;19.55;100.00;100026.41;5065062;28;20429;-80
2022/04/08 10:27:44;;;;;;;;;;;;;;;19.20;92.28;100020.19;5066198;28;20579;-80
2022/04/08 10:30:14;;;;;;;33.38;31.75;;;;;;;18.07;94.81;100027.13;5068762;28;20368;-79
2022/04/08 10:32:43;;;;;;;32.72;30.88;;;;;;;17.33;91.74;100036.53;5067179;28;20052;-79
2022/04/08 10:35:17;;;;;;;32.05;30.55;;;;;;;16.66;91.54;100030.97;5065382;28;20074;-81
2022/04/08 10:37:55;;;;;;;31.55;29.95;;;;;;;18.64;100.00;100038.50;5057474;28;20053;-80
2022/04/08 10:40:30;;;;;;;31.42;29.92;;;;;;;17.40;100.00;100034.41;5065282;28;20094;-80
2022/04/08 10:42:58;;;;;;;32.42;30.80;;;;;;;16.77;100.00;100031.06;5062137;28;20049;-79
2022/04/08 10:45:25;;;;;;;34.05;32.25;;;;;;;19.41;92.52;100041.59;5074042;28;20102;-80
2022/04/08 10:47:52;;;;;;;35.67;33.78;;;;;;;17.55;91.28;100049.69;5063725;28;20045;-79
2022/04/08 10:50:27;;;;;;;32.38;30.67;;;;;;;18.31;92.38;100051.53;5063191;28;20049;-80
2022/04/08 10:53:05;;;;;;;31.25;29.65;;;;;;;18.98;84.90;100042.13;5071894;28;20045;-80
2022/04/08 10:55:33;;;;;;;32.42;30.83;;;;;;;17.94;100.00;100044.59;5063217;28;20124;-79
2022/04/08 10:58:01;;;;;;;31.88;30.27;;;;;;;17.16;90.38;100042.97;5061957;28;20128;-79
2022/04/08 11:00:28;;;;;;;32.17;30.58;;;;;;;19.09;82.90;100048.28;5062560;28;20048;-79
2022/04/08 11:02:55;;;;;;;33.10;31.38;;;;;;;19.36;83.86;100042.41;5067076;28;20496;-80
2022/04/08 11:05:22;;;;;;;32.88;30.98;;;;;;;19.89;74.20;100050.63;5066249;28;20109;-80
2022/04/08 11:07:50;;;;;;;32.65;30.75;;;;;;;20.28;70.15;100051.59;5057194;28;20102;-79
2022/04/08 11:10:19;;;;;;;33.20;31.48;;;;;;;20.04;72.83;100054.28;5064174;28;20131;-81
2022/04/08 11:12:48;;;;;;;33.85;32.15;;;;;;;20.40;70.51;100057.41;5064970;28;20044;-81